Time,TemperatureF,DewpointF,PressureIn,WindDirection,WindDirectionDegrees,WindSpeedMPH,WindSpeedGustMPH,Humidity,HourlyPrecipIn,Conditions,Clouds,dailyrainin,SoftwareType,DateUTC
2013-03-02 00:03:00,24.3,16.6,30.40,NE,48,0.0,0.0,72,0.00,,,0.00,Wunderground v.1.15,2013-03-02 06:03:00,
2013-03-02 00:13:00,24.3,16.6,30.40,NE,48,0.0,0.0,72,0.00,,,0.00,Wunderground v.1.15,2013-03-02 06:13:00,
2013-03-02 00:23:00,24.3,16.6,30.40,NE,48,0.0,0.0,72,0.00,,,0.00,Wunderground v.1.15,2013-03-02 06:23:00,
2013-03-02 00:33:00,24.2,16.5,30.40,NE,48,0.0,0.0,72,0.00,,,0.00,Wunderground v.1.15,2013-03-02 06:33:00,
2013-03-02 00:43:00,24.2,16.5,30.39,NE,48,0.0,0.0,72,0.00,,,0.00,Wunderground v.1.15,2013-03-02 06:43:00,
2013-03-02 00:53:00,24.1,16.7,30.39,NE,48,0.0,0.0,73,0.00,,,0.00,Wunderground v.1.15,2013-03-02 06:53:00,
2013-03-02 01:03:00,24.1,16.7,30.40,NE,48,0.0,1.0,73,0.00,,,0.00,Wunderground v.1.15,2013-03-02 07:03:00,
2013-03-02 01:13:00,24.1,16.7,30.39,NE,48,0.0,0.0,73,0.00,,,0.00,Wunderground v.1.15,2013-03-02 07:13:00,
2013-03-02 01:23:00,24.0,16.6,30.40,NE,48,0.0,1.0,73,0.00,,,0.00,Wunderground v.1.15,2013-03-02 07:23:00,
2013-03-02 01:33:00,24.0,16.6,30.40,NE,48,0.0,0.0,73,0.00,,,0.00,Wunderground v.1.15,2013-03-02 07:33:00,
2013-03-02 01:43:00,23.9,16.5,30.40,NE,48,0.0,0.0,73,0.00,,,0.00,Wunderground v.1.15,2013-03-02 07:43:00,
2013-03-02 01:53:00,23.8,16.4,30.40,NE,48,0.0,0.0,73,0.00,,,0.00,Wunderground v.1.15,2013-03-02 07:53:00,
2013-03-02 02:03:00,23.7,16.3,30.40,NE,48,0.0,0.0,73,0.00,,,0.00,Wunderground v.1.15,2013-03-02 08:03:00,
2013-03-02 02:13:00,23.5,15.8,30.40,NE,48,0.0,0.0,72,0.00,,,0.00,Wunderground v.1.15,2013-03-02 08:13:00,
2013-03-02 02:23:00,23.4,16.0,30.39,NE,48,0.0,0.0,73,0.00,,,0.00,Wunderground v.1.15,2013-03-02 08:23:00,
2013-03-02 02:33:00,23.3,15.9,30.39,NE,48,0.0,0.0,73,0.00,,,0.00,Wunderground v.1.15,2013-03-02 08:33:00,
2013-03-02 02:43:00,23.2,15.8,30.39,NE,48,0.0,0.0,73,0.00,,,0.00,Wunderground v.1.15,2013-03-02 08:43:00,
2013-03-02 02:53:00,23.1,15.7,30.40,NE,48,0.0,0.0,73,0.00,,,0.00,Wunderground v.1.15,2013-03-02 08:53:00,
2013-03-02 03:03:00,23.0,15.6,30.39,NE,48,0.0,0.0,73,0.00,,,0.00,Wunderground v.1.15,2013-03-02 09:03:00,
2013-03-02 03:13:00,22.9,15.5,30.39,NE,48,0.0,0.0,73,0.00,,,0.00,Wunderground v.1.15,2013-03-02 09:13:00,
2013-03-02 03:23:00,22.9,15.8,30.39,NE,48,0.0,0.0,74,0.00,,,0.00,Wunderground v.1.15,2013-03-02 09:23:00,
2013-03-02 03:33:00,22.8,15.8,30.39,NE,48,0.0,0.0,74,0.00,,,0.00,Wunderground v.1.15,2013-03-02 09:33:00,
2013-03-02 03:43:00,22.8,15.8,30.38,NE,48,0.0,0.0,74,0.00,,,0.00,Wunderground v.1.15,2013-03-02 09:43:00,
2013-03-02 03:53:00,22.7,15.7,30.38,NE,48,0.0,0.0,74,0.00,,,0.00,Wunderground v.1.15,2013-03-02 09:53:00,
2013-03-02 04:08:00,22.7,15.7,30.38,NE,48,0.0,0.0,74,0.00,,,0.00,Wunderground v.1.15,2013-03-02 10:08:00,
2013-03-02 04:18:00,22.6,15.6,30.38,NE,48,0.0,0.0,74,0.00,,,0.00,Wunderground v.1.15,2013-03-02 10:18:00,
2013-03-02 04:23:00,22.6,15.6,30.38,NE,48,0.0,0.0,74,0.00,,,0.00,Wunderground v.1.15,2013-03-02 10:23:00,
2013-03-02 04:33:00,22.5,15.8,30.38,NE,48,0.0,0.0,75,0.00,,,0.00,Wunderground v.1.15,2013-03-02 10:33:00,
2013-03-02 04:43:00,22.5,15.8,30.39,NE,48,0.0,0.0,75,0.00,,,0.00,Wunderground v.1.15,2013-03-02 10:43:00,
2013-03-02 04:53:00,22.4,15.7,30.39,NE,48,0.0,0.0,75,0.00,,,0.00,Wunderground v.1.15,2013-03-02 10:53:00,
2013-03-02 05:03:00,22.4,15.7,30.39,NE,48,0.0,0.0,75,0.00,,,0.00,Wunderground v.1.15,2013-03-02 11:03:00,
2013-03-02 05:13:00,22.3,15.6,30.39,NE,48,0.0,0.0,75,0.00,,,0.00,Wunderground v.1.15,2013-03-02 11:13:00,
2013-03-02 05:23:00,22.3,15.6,30.39,NE,48,0.0,0.0,75,0.00,,,0.00,Wunderground v.1.15,2013-03-02 11:23:00,
2013-03-02 05:33:00,22.2,15.5,30.39,NE,48,0.0,0.0,75,0.00,,,0.00,Wunderground v.1.15,2013-03-02 11:33:00,
2013-03-02 05:43:00,22.1,15.4,30.40,NE,48,0.0,0.0,75,0.00,,,0.00,Wunderground v.1.15,2013-03-02 11:43:00,
2013-03-02 05:53:00,22.0,15.3,30.41,NE,48,0.0,0.0,75,0.00,,,0.00,Wunderground v.1.15,2013-03-02 11:53:00,
2013-03-02 06:03:00,22.0,15.6,30.40,NE,48,0.0,0.0,76,0.00,,,0.00,Wunderground v.1.15,2013-03-02 12:03:00,
2013-03-02 06:13:00,21.9,15.5,30.40,NE,48,0.0,0.0,76,0.00,,,0.00,Wunderground v.1.15,2013-03-02 12:13:00,
2013-03-02 06:23:00,21.8,15.4,30.40,NE,48,0.0,0.0,76,0.00,,,0.00,Wunderground v.1.15,2013-03-02 12:23:00,
2013-03-02 06:33:00,21.8,15.4,30.39,NE,48,0.0,0.0,76,0.00,,,0.00,Wunderground v.1.15,2013-03-02 12:33:00,
2013-03-02 06:43:00,21.8,15.4,30.39,NE,48,0.0,0.0,76,0.00,,,0.00,Wunderground v.1.15,2013-03-02 12:43:00,
2013-03-02 06:53:00,21.7,15.3,30.39,NE,48,0.0,0.0,76,0.00,,,0.00,Wunderground v.1.15,2013-03-02 12:53:00,
2013-03-02 07:03:00,21.6,15.2,30.39,NE,48,0.0,0.0,76,0.00,,,0.00,Wunderground v.1.15,2013-03-02 13:03:00,
2013-03-02 07:13:00,21.4,15.0,30.40,NE,48,0.0,0.0,76,0.00,,,0.00,Wunderground v.1.15,2013-03-02 13:13:00,
2013-03-02 07:23:00,21.2,14.8,30.40,NE,48,0.0,0.0,76,0.00,,,0.00,Wunderground v.1.15,2013-03-02 13:23:00,
2013-03-02 07:33:00,21.0,14.6,30.39,NE,48,0.0,0.0,76,0.00,,,0.00,Wunderground v.1.15,2013-03-02 13:33:00,
2013-03-02 07:43:00,21.0,14.9,30.39,NE,48,0.0,0.0,77,0.00,,,0.00,Wunderground v.1.15,2013-03-02 13:43:00,
2013-03-02 07:53:00,21.0,14.9,30.39,NE,48,0.0,0.0,77,0.00,,,0.00,Wunderground v.1.15,2013-03-02 13:53:00,
2013-03-02 08:03:00,21.2,15.4,30.40,NE,48,0.0,0.0,78,0.00,,,0.00,Wunderground v.1.15,2013-03-02 14:03:00,
2013-03-02 08:13:00,21.4,15.6,30.40,NE,48,0.0,0.0,78,0.00,,,0.00,Wunderground v.1.15,2013-03-02 14:13:00,
2013-03-02 08:23:00,21.7,15.9,30.40,NE,48,0.0,0.0,78,0.00,,,0.00,Wunderground v.1.15,2013-03-02 14:23:00,
2013-03-02 08:33:00,21.8,15.7,30.39,NE,48,0.0,0.0,77,0.00,,,0.00,Wunderground v.1.15,2013-03-02 14:33:00,
2013-03-02 08:43:00,21.9,15.8,30.40,NE,48,0.0,0.0,77,0.00,,,0.00,Wunderground v.1.15,2013-03-02 14:43:00,
2013-03-02 08:53:00,22.2,16.1,30.40,NE,48,0.0,0.0,77,0.00,,,0.00,Wunderground v.1.15,2013-03-02 14:53:00,
2013-03-02 09:03:00,22.6,16.5,30.40,NE,48,0.0,0.0,77,0.00,,,0.00,Wunderground v.1.15,2013-03-02 15:03:00,
2013-03-02 09:13:00,23.1,17.0,30.40,NE,48,0.0,0.0,77,0.00,,,0.00,Wunderground v.1.15,2013-03-02 15:13:00,
2013-03-02 09:23:00,23.8,17.3,30.39,NE,48,0.0,0.0,76,0.00,,,0.00,Wunderground v.1.15,2013-03-02 15:23:00,
2013-03-02 09:33:00,24.8,18.3,30.39,NE,48,0.0,0.0,76,0.00,,,0.00,Wunderground v.1.15,2013-03-02 15:33:00,
2013-03-02 09:43:00,26.2,19.0,30.40,NE,48,0.0,0.0,74,0.00,,,0.00,Wunderground v.1.15,2013-03-02 15:43:00,
2013-03-02 09:53:00,27.9,19.7,30.39,NE,47,0.0,0.0,71,0.00,,,0.00,Wunderground v.1.15,2013-03-02 15:53:00,
2013-03-02 10:03:00,29.5,20.2,30.38,NE,47,0.0,0.0,68,0.00,,,0.00,Wunderground v.1.15,2013-03-02 16:03:00,
2013-03-02 10:13:00,30.0,18.9,30.38,NE,47,0.0,0.0,63,0.00,,,0.00,Wunderground v.1.15,2013-03-02 16:13:00,
2013-03-02 10:23:00,30.4,19.7,30.37,NE,47,0.0,0.0,64,0.00,,,0.00,Wunderground v.1.15,2013-03-02 16:23:00,
2013-03-02 10:33:00,32.2,20.6,30.37,NE,46,0.0,0.0,62,0.00,,,0.00,Wunderground v.1.15,2013-03-02 16:33:00,
2013-03-02 10:43:00,33.6,21.2,30.36,NE,46,0.0,0.0,60,0.00,,,0.00,Wunderground v.1.15,2013-03-02 16:43:00,
2013-03-02 10:53:00,33.0,19.4,30.36,South,175,0.0,0.0,57,0.00,,,0.00,Wunderground v.1.15,2013-03-02 16:53:00,
2013-03-02 11:03:00,33.1,21.1,30.35,South,173,0.0,1.0,61,0.00,,,0.00,Wunderground v.1.15,2013-03-02 17:03:00,
2013-03-02 11:13:00,32.9,20.1,30.36,SSW,192,0.0,0.0,59,0.00,,,0.00,Wunderground v.1.15,2013-03-02 17:13:00,
2013-03-02 11:23:00,33.7,20.5,30.35,SSW,192,0.0,0.0,58,0.00,,,0.00,Wunderground v.1.15,2013-03-02 17:23:00,
2013-03-02 11:33:00,34.9,21.2,30.35,South,191,0.0,0.0,57,0.00,,,0.00,Wunderground v.1.15,2013-03-02 17:33:00,
2013-03-02 11:43:00,34.4,20.3,30.35,South,190,0.0,0.0,56,0.00,,,0.00,Wunderground v.1.15,2013-03-02 17:43:00,
2013-03-02 11:53:00,33.6,19.6,30.35,South,188,0.0,0.0,56,0.00,,,0.00,Wunderground v.1.15,2013-03-02 17:53:00,
2013-03-02 12:03:00,34.8,22.3,30.34,South,190,0.0,2.0,60,0.00,,,0.00,Wunderground v.1.15,2013-03-02 18:03:00,
2013-03-02 12:13:00,36.7,20.7,30.34,South,190,0.0,0.0,52,0.00,,,0.00,Wunderground v.1.15,2013-03-02 18:13:00,
2013-03-02 12:23:00,37.0,20.5,30.33,South,178,0.0,0.0,51,0.00,,,0.00,Wunderground v.1.15,2013-03-02 18:23:00,
2013-03-02 12:33:00,36.5,21.4,30.33,South,178,0.0,0.0,54,0.00,,,0.00,Wunderground v.1.15,2013-03-02 18:33:00,
2013-03-02 12:43:00,37.5,24.1,30.33,SSW,213,0.0,0.0,58,0.00,,,0.00,Wunderground v.1.15,2013-03-02 18:43:00,
2013-03-02 12:53:00,37.4,22.3,30.32,SSW,212,0.0,0.0,54,0.00,,,0.00,Wunderground v.1.15,2013-03-02 18:53:00,
2013-03-02 13:03:00,37.9,22.3,30.32,SSW,204,0.0,3.0,53,0.00,,,0.00,Wunderground v.1.15,2013-03-02 19:03:00,
2013-03-02 13:13:00,39.2,22.6,30.31,South,170,1.0,1.0,51,0.00,,,0.00,Wunderground v.1.15,2013-03-02 19:13:00,
2013-03-02 13:23:00,38.8,21.7,30.30,SSW,201,0.0,4.0,50,0.00,,,0.00,Wunderground v.1.15,2013-03-02 19:23:00,
2013-03-02 13:33:00,38.4,21.8,30.29,South,191,0.0,0.0,51,0.00,,,0.00,Wunderground v.1.15,2013-03-02 19:33:00,
2013-03-02 13:43:00,38.1,22.5,30.29,SSE,151,0.0,1.0,53,0.00,,,0.00,Wunderground v.1.15,2013-03-02 19:43:00,
2013-03-02 13:53:00,37.8,22.2,30.28,South,180,1.0,1.0,53,0.00,,,0.00,Wunderground v.1.15,2013-03-02 19:53:00,
2013-03-02 14:03:00,37.6,22.4,30.28,South,175,1.0,1.0,54,0.00,,,0.00,Wunderground v.1.15,2013-03-02 20:03:00,
2013-03-02 14:13:00,37.4,22.3,30.28,South,178,0.0,0.0,54,0.00,,,0.00,Wunderground v.1.15,2013-03-02 20:13:00,
2013-03-02 14:23:00,36.7,22.0,30.28,South,172,1.0,1.0,55,0.00,,,0.00,Wunderground v.1.15,2013-03-02 20:23:00,
2013-03-02 14:33:00,36.4,21.8,30.28,SSE,163,0.0,1.0,55,0.00,,,0.00,Wunderground v.1.15,2013-03-02 20:33:00,
2013-03-02 14:43:00,35.7,21.5,30.28,SSE,153,0.0,0.0,56,0.00,,,0.00,Wunderground v.1.15,2013-03-02 20:43:00,
2013-03-02 14:53:00,35.3,22.0,30.26,ESE,106,1.0,4.0,58,0.00,,,0.00,Wunderground v.1.15,2013-03-02 20:53:00,
2013-03-02 15:03:00,35.2,21.9,30.26,South,175,1.0,1.0,58,0.00,,,0.00,Wunderground v.1.15,2013-03-02 21:03:00,
2013-03-02 15:13:00,35.2,22.3,30.27,SE,129,1.0,1.0,59,0.00,,,0.00,Wunderground v.1.15,2013-03-02 21:13:00,
2013-03-02 15:23:00,35.0,21.7,30.27,South,172,0.0,0.0,58,0.00,,,0.00,Wunderground v.1.15,2013-03-02 21:23:00,
2013-03-02 15:33:00,34.9,21.2,30.26,SE,129,0.0,0.0,57,0.00,,,0.00,Wunderground v.1.15,2013-03-02 21:33:00,
2013-03-02 15:43:00,34.6,20.9,30.26,SSE,157,0.0,0.0,57,0.00,,,0.00,Wunderground v.1.15,2013-03-02 21:43:00,
2013-03-02 15:53:00,34.6,20.9,30.25,SE,144,0.0,0.0,57,0.00,,,0.00,Wunderground v.1.15,2013-03-02 21:53:00,
2013-03-02 16:03:00,34.4,20.7,30.25,SE,142,0.0,1.0,57,0.00,,,0.00,Wunderground v.1.15,2013-03-02 22:03:00,
2013-03-02 16:13:00,34.4,21.5,30.25,SE,142,0.0,0.0,59,0.00,,,0.00,Wunderground v.1.15,2013-03-02 22:13:00,
2013-03-02 16:23:00,34.4,21.9,30.26,SE,144,0.0,0.0,60,0.00,,,0.00,Wunderground v.1.15,2013-03-02 22:23:00,
2013-03-02 16:33:00,34.4,22.3,30.25,SE,144,0.0,1.0,61,0.00,,,0.00,Wunderground v.1.15,2013-03-02 22:33:00,
2013-03-02 16:43:00,34.4,22.3,30.25,SSE,148,0.0,1.0,61,0.00,,,0.00,Wunderground v.1.15,2013-03-02 22:43:00,
2013-03-02 16:53:00,34.2,22.1,30.25,SSE,168,0.0,0.0,61,0.00,,,0.00,Wunderground v.1.15,2013-03-02 22:53:00,
2013-03-02 17:03:00,34.1,22.4,30.24,SE,146,0.0,1.0,62,0.00,,,0.00,Wunderground v.1.15,2013-03-02 23:03:00,
2013-03-02 17:13:00,33.9,22.6,30.23,South,180,0.0,0.0,63,0.00,,,0.00,Wunderground v.1.15,2013-03-02 23:13:00,
2013-03-02 17:23:00,33.7,22.8,30.23,South,179,0.0,0.0,64,0.00,,,0.00,Wunderground v.1.15,2013-03-02 23:23:00,
2013-03-02 17:33:00,33.6,22.7,30.23,SSE,161,0.0,0.0,64,0.00,,,0.00,Wunderground v.1.15,2013-03-02 23:33:00,
2013-03-02 17:43:00,33.5,23.0,30.23,SSE,148,0.0,1.0,65,0.00,,,0.00,Wunderground v.1.15,2013-03-02 23:43:00,
2013-03-02 17:53:00,33.3,23.2,30.22,SE,137,0.0,0.0,66,0.00,,,0.00,Wunderground v.1.15,2013-03-02 23:53:00,
2013-03-02 18:03:00,33.1,23.0,30.22,SE,140,0.0,1.0,66,0.00,,,0.00,Wunderground v.1.15,2013-03-03 00:03:00,
2013-03-02 18:13:00,32.9,22.8,30.22,ESE,120,0.0,0.0,66,0.00,,,0.00,Wunderground v.1.15,2013-03-03 00:13:00,
2013-03-02 18:23:00,32.8,22.7,30.21,SSW,193,1.0,1.0,66,0.00,,,0.00,Wunderground v.1.15,2013-03-03 00:23:00,
2013-03-02 18:33:00,32.8,22.7,30.22,SSE,161,0.0,0.0,66,0.00,,,0.00,Wunderground v.1.15,2013-03-03 00:33:00,
2013-03-02 18:43:00,32.7,21.9,30.22,SSE,164,0.0,0.0,64,0.00,,,0.00,Wunderground v.1.15,2013-03-03 00:43:00,
2013-03-02 18:53:00,32.7,22.6,30.22,SE,146,0.0,0.0,66,0.00,,,0.00,Wunderground v.1.15,2013-03-03 00:53:00,
2013-03-02 19:03:00,32.7,22.9,30.21,SSE,158,0.0,0.0,67,0.00,,,0.00,Wunderground v.1.15,2013-03-03 01:03:00,
2013-03-02 19:13:00,32.7,23.3,30.21,South,180,0.0,1.0,68,0.00,,,0.00,Wunderground v.1.15,2013-03-03 01:13:00,
2013-03-02 19:23:00,32.7,23.3,30.20,South,175,0.0,0.0,68,0.00,,,0.00,Wunderground v.1.15,2013-03-03 01:23:00,
2013-03-02 19:33:00,32.6,22.8,30.20,SSE,158,0.0,0.0,67,0.00,,,0.00,Wunderground v.1.15,2013-03-03 01:33:00,
2013-03-02 19:43:00,32.5,22.8,30.20,SSE,162,0.0,0.0,67,0.00,,,0.00,Wunderground v.1.15,2013-03-03 01:43:00,
2013-03-02 19:53:00,32.3,22.9,30.20,SSE,161,0.0,0.0,68,0.00,,,0.00,Wunderground v.1.15,2013-03-03 01:53:00,
2013-03-02 20:03:00,32.2,22.8,30.20,SSE,161,0.0,0.0,68,0.00,,,0.00,Wunderground v.1.15,2013-03-03 02:03:00,
2013-03-02 20:13:00,32.1,23.4,30.19,SSE,162,0.0,0.0,70,0.00,,,0.00,Wunderground v.1.15,2013-03-03 02:13:00,
2013-03-02 20:23:00,32.1,23.8,30.19,South,169,0.0,2.0,71,0.00,,,0.00,Wunderground v.1.15,2013-03-03 02:23:00,
2013-03-02 20:33:00,32.0,23.3,30.19,SSE,152,0.0,1.0,70,0.00,,,0.00,Wunderground v.1.15,2013-03-03 02:33:00,
2013-03-02 20:43:00,31.9,23.2,30.19,SSW,196,1.0,1.0,70,0.00,,,0.00,Wunderground v.1.15,2013-03-03 02:43:00,
2013-03-02 20:53:00,31.9,23.2,30.19,South,179,0.0,0.0,70,0.00,,,0.00,Wunderground v.1.15,2013-03-03 02:53:00,
2013-03-02 21:03:00,31.8,23.1,30.19,South,175,0.0,0.0,70,0.00,,,0.00,Wunderground v.1.15,2013-03-03 03:03:00,
2013-03-02 21:13:00,31.7,23.0,30.19,South,173,0.0,0.0,70,0.00,,,0.00,Wunderground v.1.15,2013-03-03 03:13:00,
2013-03-02 21:23:00,31.6,22.9,30.18,South,173,0.0,0.0,70,0.00,,,0.00,Wunderground v.1.15,2013-03-03 03:23:00,
2013-03-02 21:33:00,31.5,22.8,30.18,South,172,0.0,0.0,70,0.00,,,0.00,Wunderground v.1.15,2013-03-03 03:33:00,
2013-03-02 21:43:00,31.4,22.7,30.18,South,173,0.0,0.0,70,0.00,,,0.00,Wunderground v.1.15,2013-03-03 03:43:00,
2013-03-02 21:53:00,31.2,22.9,30.18,South,172,0.0,0.0,71,0.00,,,0.00,Wunderground v.1.15,2013-03-03 03:53:00,
2013-03-02 22:03:00,31.0,22.7,30.17,South,171,0.0,0.0,71,0.00,,,0.00,Wunderground v.1.15,2013-03-03 04:03:00,
2013-03-02 22:13:00,30.8,22.8,30.17,South,171,0.0,1.0,72,0.00,,,0.00,Wunderground v.1.15,2013-03-03 04:13:00,
2013-03-02 22:23:00,30.6,23.0,30.17,South,170,0.0,0.0,73,0.00,,,0.00,Wunderground v.1.15,2013-03-03 04:23:00,
2013-03-02 22:33:00,30.4,23.1,30.17,South,170,0.0,0.0,74,0.00,,,0.00,Wunderground v.1.15,2013-03-03 04:33:00,
2013-03-02 22:43:00,30.2,23.2,30.17,South,169,0.0,0.0,75,0.00,,,0.00,Wunderground v.1.15,2013-03-03 04:43:00,
2013-03-02 22:53:00,30.0,23.4,30.17,South,169,0.0,0.0,76,0.00,,,0.00,Wunderground v.1.15,2013-03-03 04:53:00,
2013-03-02 23:03:00,29.8,23.2,30.17,SSE,165,0.0,0.0,76,0.00,,,0.00,Wunderground v.1.15,2013-03-03 05:03:00,
2013-03-02 23:08:00,29.7,23.1,30.16,SSE,164,0.0,0.0,76,0.00,,,0.00,Wunderground v.1.15,2013-03-03 05:08:00,
2013-03-02 23:13:00,29.6,23.3,30.16,SSE,157,0.0,0.0,77,0.00,,,0.00,Wunderground v.1.15,2013-03-03 05:13:00,
2013-03-02 23:23:00,29.5,23.2,30.15,South,169,0.0,0.0,77,0.00,,,0.00,Wunderground v.1.15,2013-03-03 05:23:00,
2013-03-02 23:33:00,29.4,23.4,30.16,SSE,164,1.0,1.0,78,0.00,,,0.00,Wunderground v.1.15,2013-03-03 05:33:00,
2013-03-02 23:43:00,29.2,23.2,30.15,ESE,114,0.0,1.0,78,0.00,,,0.00,Wunderground v.1.15,2013-03-03 05:43:00,
2013-03-02 23:48:00,29.2,23.2,30.15,SSE,154,0.0,1.0,78,0.00,,,0.00,Wunderground v.1.15,2013-03-03 05:48:00,
2013-03-02 23:53:00,29.2,23.2,30.15,SE,142,0.0,1.0,78,0.00,,,0.00,Wunderground v.1.15,2013-03-03 05:53:00,